sensor_id;sensor_type;location;lat;lon;timestamp;P1;durP1;ratioP1;P2;durP2;ratioP2
3050;SDS011;1535;51.098;6.414;2022-07-09T00:01:26;12.30;;;11.37;;
3050;SDS011;1535;51.098;6.414;2022-07-09T00:03:53;12.10;;;11.10;;
3050;SDS011;1535;51.098;6.414;2022-07-09T00:06:20;12.27;;;11.13;;
3050;SDS011;1535;51.098;6.414;2022-07-09T00:08:47;15.23;;;11.20;;
3050;SDS011;1535;51.098;6.414;2022-07-09T00:11:15;13.20;;;12.30;;
3050;SDS011;1535;51.098;6.414;2022-07-09T00:13:42;13.07;;;12.00;;
3050;SDS011;1535;51.098;6.414;2022-07-09T00:16:10;14.50;;;12.63;;
3050;SDS011;1535;51.098;6.414;2022-07-09T00:18:37;14.37;;;11.70;;
3050;SDS011;1535;51.098;6.414;2022-07-09T00:21:04;13.17;;;12.17;;
3050;SDS011;1535;51.098;6.414;2022-07-09T00:23:31;13.43;;;12.23;;
3050;SDS011;1535;51.098;6.414;2022-07-09T00:25:58;13.57;;;11.77;;
3050;SDS011;1535;51.098;6.414;2022-07-09T00:28:25;13.63;;;12.40;;
3050;SDS011;1535;51.098;6.414;2022-07-09T00:30:52;12.63;;;11.40;;
3050;SDS011;1535;51.098;6.414;2022-07-09T00:33:20;13.20;;;12.17;;
3050;SDS011;1535;51.098;6.414;2022-07-09T00:35:47;13.67;;;12.47;;
3050;SDS011;1535;51.098;6.414;2022-07-09T00:38:14;12.43;;;11.53;;
3050;SDS011;1535;51.098;6.414;2022-07-09T00:40:41;14.83;;;13.30;;
3050;SDS011;1535;51.098;6.414;2022-07-09T00:43:15;13.53;;;12.50;;
3050;SDS011;1535;51.098;6.414;2022-07-09T00:45:43;13.80;;;12.70;;
3050;SDS011;1535;51.098;6.414;2022-07-09T00:48:10;13.93;;;12.83;;
3050;SDS011;1535;51.098;6.414;2022-07-09T00:50:40;14.10;;;12.90;;
3050;SDS011;1535;51.098;6.414;2022-07-09T00:53:08;15.17;;;13.77;;
3050;SDS011;1535;51.098;6.414;2022-07-09T00:55:36;14.23;;;12.87;;
3050;SDS011;1535;51.098;6.414;2022-07-09T00:58:04;14.03;;;12.93;;
3050;SDS011;1535;51.098;6.414;2022-07-09T01:00:32;14.50;;;13.50;;
3050;SDS011;1535;51.098;6.414;2022-07-09T01:03:01;14.67;;;13.47;;
3050;SDS011;1535;51.098;6.414;2022-07-09T01:05:28;14.23;;;13.20;;
3050;SDS011;1535;51.098;6.414;2022-07-09T01:08:02;15.50;;;14.00;;
3050;SDS011;1535;51.098;6.414;2022-07-09T01:10:30;15.87;;;14.37;;
3050;SDS011;1535;51.098;6.414;2022-07-09T01:12:58;15.43;;;14.23;;
3050;SDS011;1535;51.098;6.414;2022-07-09T01:15:25;15.07;;;13.70;;
3050;SDS011;1535;51.098;6.414;2022-07-09T01:17:52;15.03;;;13.90;;
3050;SDS011;1535;51.098;6.414;2022-07-09T01:20:23;14.60;;;13.30;;
3050;SDS011;1535;51.098;6.414;2022-07-09T01:22:51;15.10;;;13.87;;
3050;SDS011;1535;51.098;6.414;2022-07-09T01:25:18;14.67;;;13.37;;
3050;SDS011;1535;51.098;6.414;2022-07-09T01:27:46;14.73;;;13.63;;
3050;SDS011;1535;51.098;6.414;2022-07-09T01:30:23;15.53;;;14.23;;
3050;SDS011;1535;51.098;6.414;2022-07-09T01:32:51;15.20;;;14.00;;
3050;SDS011;1535;51.098;6.414;2022-07-09T01:35:20;14.70;;;13.57;;
3050;SDS011;1535;51.098;6.414;2022-07-09T01:37:48;17.70;;;16.20;;
3050;SDS011;1535;51.098;6.414;2022-07-09T01:40:15;17.10;;;15.60;;
3050;SDS011;1535;51.098;6.414;2022-07-09T01:42:43;17.87;;;16.17;;
3050;SDS011;1535;51.098;6.414;2022-07-09T01:45:10;18.37;;;15.20;;
3050;SDS011;1535;51.098;6.414;2022-07-09T01:47:37;22.63;;;15.10;;
3050;SDS011;1535;51.098;6.414;2022-07-09T01:50:04;17.43;;;15.63;;
3050;SDS011;1535;51.098;6.414;2022-07-09T01:52:32;15.73;;;14.20;;
3050;SDS011;1535;51.098;6.414;2022-07-09T01:55:01;16.90;;;15.43;;
3050;SDS011;1535;51.098;6.414;2022-07-09T01:57:28;19.63;;;13.80;;
3050;SDS011;1535;51.098;6.414;2022-07-09T01:59:55;16.53;;;15.07;;
3050;SDS011;1535;51.098;6.414;2022-07-09T02:02:22;16.60;;;15.00;;
3050;SDS011;1535;51.098;6.414;2022-07-09T02:04:49;17.37;;;15.47;;
3050;SDS011;1535;51.098;6.414;2022-07-09T02:07:16;15.77;;;14.47;;
3050;SDS011;1535;51.098;6.414;2022-07-09T02:09:44;15.77;;;14.27;;
3050;SDS011;1535;51.098;6.414;2022-07-09T02:12:12;16.30;;;14.63;;
3050;SDS011;1535;51.098;6.414;2022-07-09T02:14:38;17.27;;;15.67;;
3050;SDS011;1535;51.098;6.414;2022-07-09T02:17:05;18.43;;;15.50;;
3050;SDS011;1535;51.098;6.414;2022-07-09T02:19:32;15.00;;;14.00;;
3050;SDS011;1535;51.098;6.414;2022-07-09T02:21:59;18.57;;;16.93;;
3050;SDS011;1535;51.098;6.414;2022-07-09T02:24:26;16.03;;;14.83;;
3050;SDS011;1535;51.098;6.414;2022-07-09T02:26:53;24.43;;;16.37;;
3050;SDS011;1535;51.098;6.414;2022-07-09T02:29:22;19.10;;;15.93;;
3050;SDS011;1535;51.098;6.414;2022-07-09T02:31:48;17.80;;;16.13;;
3050;SDS011;1535;51.098;6.414;2022-07-09T02:34:15;15.97;;;14.87;;
3050;SDS011;1535;51.098;6.414;2022-07-09T02:36:43;17.77;;;16.00;;
3050;SDS011;1535;51.098;6.414;2022-07-09T02:39:09;17.93;;;16.53;;
3050;SDS011;1535;51.098;6.414;2022-07-09T02:41:37;17.80;;;16.10;;
3050;SDS011;1535;51.098;6.414;2022-07-09T02:44:04;17.13;;;15.83;;
3050;SDS011;1535;51.098;6.414;2022-07-09T02:46:32;18.50;;;16.90;;
3050;SDS011;1535;51.098;6.414;2022-07-09T02:48:59;18.03;;;16.40;;
3050;SDS011;1535;51.098;6.414;2022-07-09T02:51:26;18.90;;;17.50;;
3050;SDS011;1535;51.098;6.414;2022-07-09T02:54:07;19.07;;;17.37;;
3050;SDS011;1535;51.098;6.414;2022-07-09T02:56:34;18.27;;;16.77;;
3050;SDS011;1535;51.098;6.414;2022-07-09T02:59:01;18.00;;;16.57;;
3050;SDS011;1535;51.098;6.414;2022-07-09T03:01:28;19.40;;;17.90;;
3050;SDS011;1535;51.098;6.414;2022-07-09T03:03:57;26.87;;;17.10;;
3050;SDS011;1535;51.098;6.414;2022-07-09T03:06:23;19.37;;;17.33;;
3050;SDS011;1535;51.098;6.414;2022-07-09T03:08:50;20.60;;;18.90;;
3050;SDS011;1535;51.098;6.414;2022-07-09T03:11:17;19.03;;;17.40;;
3050;SDS011;1535;51.098;6.414;2022-07-09T03:13:45;21.40;;;19.50;;
3050;SDS011;1535;51.098;6.414;2022-07-09T03:16:11;22.87;;;20.37;;
3050;SDS011;1535;51.098;6.414;2022-07-09T03:18:38;24.90;;;19.50;;
3050;SDS011;1535;51.098;6.414;2022-07-09T03:21:07;22.27;;;20.20;;
3050;SDS011;1535;51.098;6.414;2022-07-09T03:23:34;22.23;;;20.03;;
3050;SDS011;1535;51.098;6.414;2022-07-09T03:26:01;21.73;;;19.67;;
3050;SDS011;1535;51.098;6.414;2022-07-09T03:28:30;22.43;;;20.40;;
3050;SDS011;1535;51.098;6.414;2022-07-09T03:30:57;20.23;;;18.63;;
3050;SDS011;1535;51.098;6.414;2022-07-09T03:33:24;22.33;;;20.50;;
3050;SDS011;1535;51.098;6.414;2022-07-09T03:35:53;22.83;;;20.90;;
3050;SDS011;1535;51.098;6.414;2022-07-09T03:38:22;21.40;;;19.20;;
3050;SDS011;1535;51.098;6.414;2022-07-09T03:40:50;23.03;;;20.70;;
3050;SDS011;1535;51.098;6.414;2022-07-09T03:43:17;22.87;;;20.90;;
3050;SDS011;1535;51.098;6.414;2022-07-09T03:45:44;21.63;;;19.73;;
3050;SDS011;1535;51.098;6.414;2022-07-09T03:48:12;22.27;;;20.27;;
3050;SDS011;1535;51.098;6.414;2022-07-09T03:50:39;21.90;;;19.63;;
3050;SDS011;1535;51.098;6.414;2022-07-09T03:53:06;20.20;;;18.40;;
3050;SDS011;1535;51.098;6.414;2022-07-09T03:55:35;22.70;;;20.50;;
3050;SDS011;1535;51.098;6.414;2022-07-09T03:58:02;22.53;;;20.43;;
3050;SDS011;1535;51.098;6.414;2022-07-09T04:00:29;22.10;;;20.10;;
3050;SDS011;1535;51.098;6.414;2022-07-09T04:02:56;22.27;;;19.50;;
3050;SDS011;1535;51.098;6.414;2022-07-09T04:05:23;23.07;;;21.17;;
3050;SDS011;1535;51.098;6.414;2022-07-09T04:07:50;21.53;;;19.70;;
3050;SDS011;1535;51.098;6.414;2022-07-09T04:10:18;20.80;;;18.90;;
3050;SDS011;1535;51.098;6.414;2022-07-09T04:12:47;19.63;;;18.13;;
3050;SDS011;1535;51.098;6.414;2022-07-09T04:15:13;21.70;;;19.90;;
3050;SDS011;1535;51.098;6.414;2022-07-09T04:17:40;22.53;;;20.20;;
3050;SDS011;1535;51.098;6.414;2022-07-09T04:20:08;22.40;;;20.70;;
3050;SDS011;1535;51.098;6.414;2022-07-09T04:22:35;21.50;;;20.00;;
3050;SDS011;1535;51.098;6.414;2022-07-09T04:25:03;21.63;;;19.87;;
3050;SDS011;1535;51.098;6.414;2022-07-09T04:27:30;23.53;;;21.50;;
3050;SDS011;1535;51.098;6.414;2022-07-09T04:29:58;25.40;;;23.13;;
3050;SDS011;1535;51.098;6.414;2022-07-09T04:32:25;24.43;;;22.00;;
3050;SDS011;1535;51.098;6.414;2022-07-09T04:34:52;25.43;;;23.23;;
3050;SDS011;1535;51.098;6.414;2022-07-09T04:37:19;25.70;;;23.50;;
3050;SDS011;1535;51.098;6.414;2022-07-09T04:39:46;25.23;;;22.83;;
3050;SDS011;1535;51.098;6.414;2022-07-09T04:42:13;24.00;;;21.90;;
3050;SDS011;1535;51.098;6.414;2022-07-09T04:44:40;23.40;;;21.47;;
3050;SDS011;1535;51.098;6.414;2022-07-09T04:47:09;22.80;;;20.50;;
3050;SDS011;1535;51.098;6.414;2022-07-09T04:49:36;20.60;;;18.73;;
3050;SDS011;1535;51.098;6.414;2022-07-09T04:52:03;21.43;;;19.10;;
3050;SDS011;1535;51.098;6.414;2022-07-09T04:54:31;19.83;;;18.10;;
3050;SDS011;1535;51.098;6.414;2022-07-09T04:56:58;22.10;;;20.00;;
3050;SDS011;1535;51.098;6.414;2022-07-09T04:59:25;24.87;;;22.87;;
3050;SDS011;1535;51.098;6.414;2022-07-09T05:01:51;21.17;;;19.40;;
3050;SDS011;1535;51.098;6.414;2022-07-09T05:04:20;25.73;;;23.30;;
3050;SDS011;1535;51.098;6.414;2022-07-09T05:06:47;31.47;;;23.67;;
3050;SDS011;1535;51.098;6.414;2022-07-09T05:09:14;24.17;;;21.93;;
3050;SDS011;1535;51.098;6.414;2022-07-09T05:11:40;22.90;;;20.63;;
3050;SDS011;1535;51.098;6.414;2022-07-09T05:14:07;24.37;;;21.90;;
3050;SDS011;1535;51.098;6.414;2022-07-09T05:16:34;22.17;;;20.37;;
3050;SDS011;1535;51.098;6.414;2022-07-09T05:19:01;23.83;;;21.70;;
3050;SDS011;1535;51.098;6.414;2022-07-09T05:21:29;25.97;;;23.60;;
3050;SDS011;1535;51.098;6.414;2022-07-09T05:23:56;26.20;;;23.53;;
3050;SDS011;1535;51.098;6.414;2022-07-09T05:26:24;27.90;;;25.37;;
3050;SDS011;1535;51.098;6.414;2022-07-09T05:28:53;29.37;;;26.37;;
3050;SDS011;1535;51.098;6.414;2022-07-09T05:31:19;26.37;;;23.77;;
3050;SDS011;1535;51.098;6.414;2022-07-09T05:33:46;29.30;;;26.37;;
3050;SDS011;1535;51.098;6.414;2022-07-09T05:36:13;30.70;;;24.23;;
3050;SDS011;1535;51.098;6.414;2022-07-09T05:38:41;28.33;;;25.30;;
3050;SDS011;1535;51.098;6.414;2022-07-09T05:41:08;28.87;;;24.83;;
3050;SDS011;1535;51.098;6.414;2022-07-09T05:43:36;31.30;;;25.43;;
3050;SDS011;1535;51.098;6.414;2022-07-09T05:46:03;27.17;;;24.27;;
3050;SDS011;1535;51.098;6.414;2022-07-09T05:48:30;29.60;;;25.30;;
3050;SDS011;1535;51.098;6.414;2022-07-09T05:50:56;29.53;;;23.60;;
3050;SDS011;1535;51.098;6.414;2022-07-09T05:53:23;33.43;;;24.67;;
3050;SDS011;1535;51.098;6.414;2022-07-09T05:55:52;29.10;;;22.13;;
3050;SDS011;1535;51.098;6.414;2022-07-09T05:58:19;27.37;;;23.10;;
3050;SDS011;1535;51.098;6.414;2022-07-09T06:00:45;27.53;;;23.73;;
3050;SDS011;1535;51.098;6.414;2022-07-09T06:03:12;26.70;;;23.10;;
3050;SDS011;1535;51.098;6.414;2022-07-09T06:05:39;25.23;;;22.70;;
3050;SDS011;1535;51.098;6.414;2022-07-09T06:08:06;30.17;;;22.87;;
3050;SDS011;1535;51.098;6.414;2022-07-09T06:10:34;25.73;;;22.50;;
3050;SDS011;1535;51.098;6.414;2022-07-09T06:13:02;21.20;;;19.20;;
3050;SDS011;1535;51.098;6.414;2022-07-09T06:15:29;25.90;;;22.00;;
3050;SDS011;1535;51.098;6.414;2022-07-09T06:17:56;22.37;;;20.17;;
3050;SDS011;1535;51.098;6.414;2022-07-09T06:20:23;21.60;;;19.30;;
3050;SDS011;1535;51.098;6.414;2022-07-09T06:22:50;22.60;;;19.63;;
3050;SDS011;1535;51.098;6.414;2022-07-09T06:25:17;21.17;;;18.90;;
3050;SDS011;1535;51.098;6.414;2022-07-09T06:27:44;20.73;;;18.77;;
3050;SDS011;1535;51.098;6.414;2022-07-09T06:30:13;20.57;;;18.57;;
3050;SDS011;1535;51.098;6.414;2022-07-09T06:32:41;21.83;;;19.53;;
3050;SDS011;1535;51.098;6.414;2022-07-09T06:35:08;19.63;;;17.83;;
3050;SDS011;1535;51.098;6.414;2022-07-09T06:37:35;19.07;;;17.10;;
3050;SDS011;1535;51.098;6.414;2022-07-09T06:40:02;18.63;;;17.20;;
3050;SDS011;1535;51.098;6.414;2022-07-09T06:42:29;16.80;;;15.50;;
3050;SDS011;1535;51.098;6.414;2022-07-09T06:44:56;16.10;;;14.90;;
3050;SDS011;1535;51.098;6.414;2022-07-09T06:47:24;16.47;;;15.17;;
3050;SDS011;1535;51.098;6.414;2022-07-09T06:49:51;15.30;;;14.20;;
3050;SDS011;1535;51.098;6.414;2022-07-09T06:52:18;16.93;;;15.53;;
3050;SDS011;1535;51.098;6.414;2022-07-09T06:54:45;16.83;;;15.73;;
3050;SDS011;1535;51.098;6.414;2022-07-09T06:57:12;18.20;;;16.80;;
3050;SDS011;1535;51.098;6.414;2022-07-09T06:59:39;18.87;;;16.53;;
3050;SDS011;1535;51.098;6.414;2022-07-09T07:02:06;17.30;;;15.97;;
3050;SDS011;1535;51.098;6.414;2022-07-09T07:04:34;16.33;;;15.23;;
3050;SDS011;1535;51.098;6.414;2022-07-09T07:07:01;14.83;;;13.93;;
3050;SDS011;1535;51.098;6.414;2022-07-09T07:09:29;15.60;;;14.63;;
3050;SDS011;1535;51.098;6.414;2022-07-09T07:11:56;15.60;;;14.40;;
3050;SDS011;1535;51.098;6.414;2022-07-09T07:14:23;16.50;;;15.33;;
3050;SDS011;1535;51.098;6.414;2022-07-09T07:16:50;17.63;;;16.23;;
3050;SDS011;1535;51.098;6.414;2022-07-09T07:19:18;16.90;;;15.90;;
3050;SDS011;1535;51.098;6.414;2022-07-09T07:21:47;18.03;;;16.73;;
3050;SDS011;1535;51.098;6.414;2022-07-09T07:24:14;18.60;;;17.23;;
3050;SDS011;1535;51.098;6.414;2022-07-09T07:26:42;17.73;;;16.40;;
3050;SDS011;1535;51.098;6.414;2022-07-09T07:29:09;16.47;;;15.40;;
3050;SDS011;1535;51.098;6.414;2022-07-09T07:31:36;16.23;;;15.13;;
3050;SDS011;1535;51.098;6.414;2022-07-09T07:34:03;16.50;;;15.10;;
3050;SDS011;1535;51.098;6.414;2022-07-09T07:36:30;16.40;;;15.40;;
3050;SDS011;1535;51.098;6.414;2022-07-09T07:39:00;17.40;;;15.90;;
3050;SDS011;1535;51.098;6.414;2022-07-09T07:41:27;16.83;;;15.57;;
3050;SDS011;1535;51.098;6.414;2022-07-09T07:43:54;14.57;;;13.53;;
3050;SDS011;1535;51.098;6.414;2022-07-09T07:46:21;14.27;;;13.57;;
3050;SDS011;1535;51.098;6.414;2022-07-09T07:48:48;15.53;;;14.53;;
3050;SDS011;1535;51.098;6.414;2022-07-09T07:51:15;14.50;;;13.70;;
3050;SDS011;1535;51.098;6.414;2022-07-09T07:53:42;14.40;;;13.40;;
3050;SDS011;1535;51.098;6.414;2022-07-09T07:56:11;14.00;;;13.30;;
3050;SDS011;1535;51.098;6.414;2022-07-09T07:58:38;15.07;;;14.20;;
3050;SDS011;1535;51.098;6.414;2022-07-09T08:01:05;14.90;;;13.90;;
3050;SDS011;1535;51.098;6.414;2022-07-09T08:03:31;14.63;;;13.93;;
3050;SDS011;1535;51.098;6.414;2022-07-09T08:05:58;14.77;;;13.90;;
3050;SDS011;1535;51.098;6.414;2022-07-09T08:08:26;12.90;;;12.30;;
3050;SDS011;1535;51.098;6.414;2022-07-09T08:10:53;13.67;;;12.97;;
3050;SDS011;1535;51.098;6.414;2022-07-09T08:13:21;13.73;;;12.93;;
3050;SDS011;1535;51.098;6.414;2022-07-09T08:15:48;13.40;;;12.80;;
3050;SDS011;1535;51.098;6.414;2022-07-09T08:18:15;13.10;;;12.40;;
3050;SDS011;1535;51.098;6.414;2022-07-09T08:20:42;13.60;;;12.90;;
3050;SDS011;1535;51.098;6.414;2022-07-09T08:23:09;13.57;;;12.93;;
3050;SDS011;1535;51.098;6.414;2022-07-09T08:25:36;14.10;;;13.50;;
3050;SDS011;1535;51.098;6.414;2022-07-09T08:28:04;14.30;;;13.60;;
3050;SDS011;1535;51.098;6.414;2022-07-09T08:30:32;14.37;;;13.57;;
3050;SDS011;1535;51.098;6.414;2022-07-09T08:33:00;14.23;;;13.53;;
3050;SDS011;1535;51.098;6.414;2022-07-09T08:35:27;14.80;;;14.00;;
3050;SDS011;1535;51.098;6.414;2022-07-09T08:37:54;14.27;;;13.63;;
3050;SDS011;1535;51.098;6.414;2022-07-09T08:40:21;14.40;;;13.40;;
3050;SDS011;1535;51.098;6.414;2022-07-09T08:42:50;14.77;;;13.83;;
3050;SDS011;1535;51.098;6.414;2022-07-09T08:45:17;14.00;;;13.30;;
3050;SDS011;1535;51.098;6.414;2022-07-09T08:47:46;14.43;;;13.63;;
3050;SDS011;1535;51.098;6.414;2022-07-09T08:50:13;14.20;;;13.50;;
3050;SDS011;1535;51.098;6.414;2022-07-09T08:52:40;14.90;;;13.93;;
3050;SDS011;1535;51.098;6.414;2022-07-09T08:55:08;14.77;;;14.00;;
3050;SDS011;1535;51.098;6.414;2022-07-09T08:57:35;15.00;;;14.20;;
3050;SDS011;1535;51.098;6.414;2022-07-09T09:00:03;15.47;;;14.57;;
3050;SDS011;1535;51.098;6.414;2022-07-09T09:02:34;13.40;;;12.80;;
3050;SDS011;1535;51.098;6.414;2022-07-09T09:05:07;13.37;;;12.80;;
3050;SDS011;1535;51.098;6.414;2022-07-09T09:07:36;14.27;;;13.50;;
3050;SDS011;1535;51.098;6.414;2022-07-09T09:10:04;13.73;;;13.13;;
3050;SDS011;1535;51.098;6.414;2022-07-09T09:12:31;14.80;;;13.63;;
3050;SDS011;1535;51.098;6.414;2022-07-09T09:14:58;13.67;;;12.93;;
3050;SDS011;1535;51.098;6.414;2022-07-09T09:17:25;13.30;;;12.60;;
3050;SDS011;1535;51.098;6.414;2022-07-09T09:19:52;14.10;;;13.50;;
3050;SDS011;1535;51.098;6.414;2022-07-09T09:22:20;14.00;;;13.37;;
3050;SDS011;1535;51.098;6.414;2022-07-09T09:24:50;14.30;;;13.60;;
3050;SDS011;1535;51.098;6.414;2022-07-09T09:27:18;14.80;;;14.00;;
3050;SDS011;1535;51.098;6.414;2022-07-09T09:29:54;14.90;;;14.20;;
3050;SDS011;1535;51.098;6.414;2022-07-09T09:32:24;15.07;;;14.37;;
3050;SDS011;1535;51.098;6.414;2022-07-09T09:34:52;15.20;;;14.50;;
3050;SDS011;1535;51.098;6.414;2022-07-09T09:37:27;15.60;;;14.80;;
3050;SDS011;1535;51.098;6.414;2022-07-09T09:39:54;15.67;;;14.87;;
3050;SDS011;1535;51.098;6.414;2022-07-09T09:42:23;14.80;;;14.10;;
3050;SDS011;1535;51.098;6.414;2022-07-09T09:44:51;15.90;;;15.00;;
3050;SDS011;1535;51.098;6.414;2022-07-09T09:47:22;15.23;;;14.33;;
3050;SDS011;1535;51.098;6.414;2022-07-09T09:49:50;15.37;;;14.10;;
3050;SDS011;1535;51.098;6.414;2022-07-09T09:52:18;14.77;;;13.80;;
3050;SDS011;1535;51.098;6.414;2022-07-09T09:54:47;13.87;;;13.17;;
3050;SDS011;1535;51.098;6.414;2022-07-09T09:57:14;14.37;;;13.57;;
3050;SDS011;1535;51.098;6.414;2022-07-09T09:59:43;14.93;;;14.13;;
3050;SDS011;1535;51.098;6.414;2022-07-09T10:02:12;15.17;;;14.30;;
3050;SDS011;1535;51.098;6.414;2022-07-09T10:04:40;15.77;;;14.60;;
3050;SDS011;1535;51.098;6.414;2022-07-09T10:07:08;15.13;;;14.33;;
3050;SDS011;1535;51.098;6.414;2022-07-09T10:09:37;15.07;;;14.17;;
3050;SDS011;1535;51.098;6.414;2022-07-09T10:12:06;15.27;;;14.50;;
3050;SDS011;1535;51.098;6.414;2022-07-09T10:14:36;15.03;;;14.33;;
3050;SDS011;1535;51.098;6.414;2022-07-09T10:17:11;14.70;;;14.00;;
3050;SDS011;1535;51.098;6.414;2022-07-09T10:19:50;15.80;;;14.80;;
3050;SDS011;1535;51.098;6.414;2022-07-09T10:22:18;14.90;;;14.10;;
3050;SDS011;1535;51.098;6.414;2022-07-09T10:24:45;14.77;;;13.93;;
3050;SDS011;1535;51.098;6.414;2022-07-09T10:27:17;15.07;;;14.27;;
3050;SDS011;1535;51.098;6.414;2022-07-09T10:29:53;14.93;;;14.23;;
3050;SDS011;1535;51.098;6.414;2022-07-09T10:32:21;14.83;;;14.03;;
3050;SDS011;1535;51.098;6.414;2022-07-09T10:34:53;14.17;;;13.50;;
3050;SDS011;1535;51.098;6.414;2022-07-09T10:37:32;14.23;;;13.63;;
3050;SDS011;1535;51.098;6.414;2022-07-09T10:40:07;14.50;;;13.80;;
3050;SDS011;1535;51.098;6.414;2022-07-09T10:42:37;14.93;;;14.20;;
3050;SDS011;1535;51.098;6.414;2022-07-09T10:45:24;15.20;;;14.40;;
3050;SDS011;1535;51.098;6.414;2022-07-09T10:47:55;15.30;;;14.30;;
3050;SDS011;1535;51.098;6.414;2022-07-09T10:50:23;14.00;;;13.40;;
3050;SDS011;1535;51.098;6.414;2022-07-09T10:52:51;15.43;;;14.40;;
3050;SDS011;1535;51.098;6.414;2022-07-09T10:55:18;14.50;;;13.70;;
3050;SDS011;1535;51.098;6.414;2022-07-09T10:57:47;14.70;;;13.80;;
3050;SDS011;1535;51.098;6.414;2022-07-09T11:00:15;15.23;;;14.43;;
3050;SDS011;1535;51.098;6.414;2022-07-09T11:02:52;14.60;;;13.70;;
3050;SDS011;1535;51.098;6.414;2022-07-09T11:05:20;15.37;;;14.37;;
3050;SDS011;1535;51.098;6.414;2022-07-09T11:07:56;15.10;;;14.40;;
3050;SDS011;1535;51.098;6.414;2022-07-09T11:10:24;15.90;;;15.00;;
3050;SDS011;1535;51.098;6.414;2022-07-09T11:12:54;15.93;;;15.13;;
3050;SDS011;1535;51.098;6.414;2022-07-09T11:15:21;15.30;;;14.30;;
3050;SDS011;1535;51.098;6.414;2022-07-09T11:17:54;15.60;;;14.80;;
3050;SDS011;1535;51.098;6.414;2022-07-09T11:20:22;15.40;;;14.13;;
3050;SDS011;1535;51.098;6.414;2022-07-09T11:22:50;15.03;;;14.07;;
3050;SDS011;1535;51.098;6.414;2022-07-09T11:25:17;15.03;;;14.20;;
3050;SDS011;1535;51.098;6.414;2022-07-09T11:27:44;15.83;;;14.93;;
3050;SDS011;1535;51.098;6.414;2022-07-09T11:30:13;16.13;;;14.77;;
3050;SDS011;1535;51.098;6.414;2022-07-09T11:32:40;15.37;;;14.43;;
3050;SDS011;1535;51.098;6.414;2022-07-09T11:35:08;14.83;;;14.20;;
3050;SDS011;1535;51.098;6.414;2022-07-09T11:37:35;16.00;;;14.60;;
3050;SDS011;1535;51.098;6.414;2022-07-09T11:40:03;15.80;;;14.80;;
3050;SDS011;1535;51.098;6.414;2022-07-09T11:42:31;17.17;;;15.63;;
3050;SDS011;1535;51.098;6.414;2022-07-09T11:44:58;14.90;;;14.20;;
3050;SDS011;1535;51.098;6.414;2022-07-09T11:47:34;16.70;;;15.70;;
3050;SDS011;1535;51.098;6.414;2022-07-09T11:50:06;15.90;;;15.00;;
3050;SDS011;1535;51.098;6.414;2022-07-09T11:52:35;15.90;;;14.90;;
3050;SDS011;1535;51.098;6.414;2022-07-09T11:55:03;16.87;;;15.77;;
3050;SDS011;1535;51.098;6.414;2022-07-09T11:57:32;16.33;;;15.33;;
3050;SDS011;1535;51.098;6.414;2022-07-09T12:00:00;15.70;;;14.60;;
3050;SDS011;1535;51.098;6.414;2022-07-09T12:02:29;16.63;;;15.00;;
3050;SDS011;1535;51.098;6.414;2022-07-09T12:04:58;15.60;;;14.83;;
3050;SDS011;1535;51.098;6.414;2022-07-09T12:07:26;16.03;;;15.13;;
3050;SDS011;1535;51.098;6.414;2022-07-09T12:09:59;15.80;;;14.87;;
3050;SDS011;1535;51.098;6.414;2022-07-09T12:12:27;15.87;;;14.97;;
3050;SDS011;1535;51.098;6.414;2022-07-09T12:14:54;16.30;;;14.83;;
3050;SDS011;1535;51.098;6.414;2022-07-09T12:17:22;15.20;;;14.23;;
3050;SDS011;1535;51.098;6.414;2022-07-09T12:19:50;15.03;;;14.23;;
3050;SDS011;1535;51.098;6.414;2022-07-09T12:22:19;15.40;;;14.43;;
3050;SDS011;1535;51.098;6.414;2022-07-09T12:24:46;15.40;;;14.43;;
3050;SDS011;1535;51.098;6.414;2022-07-09T12:27:13;17.10;;;16.10;;
3050;SDS011;1535;51.098;6.414;2022-07-09T12:29:40;17.90;;;16.90;;
3050;SDS011;1535;51.098;6.414;2022-07-09T12:32:07;22.20;;;20.90;;
3050;SDS011;1535;51.098;6.414;2022-07-09T12:34:35;22.13;;;20.50;;
3050;SDS011;1535;51.098;6.414;2022-07-09T12:37:02;24.80;;;22.93;;
3050;SDS011;1535;51.098;6.414;2022-07-09T12:39:31;38.63;;;27.20;;
3050;SDS011;1535;51.098;6.414;2022-07-09T12:41:58;41.90;;;33.60;;
3050;SDS011;1535;51.098;6.414;2022-07-09T12:44:26;38.93;;;35.00;;
3050;SDS011;1535;51.098;6.414;2022-07-09T12:46:53;35.67;;;32.63;;
3050;SDS011;1535;51.098;6.414;2022-07-09T12:49:20;37.77;;;34.57;;
3050;SDS011;1535;51.098;6.414;2022-07-09T12:51:47;36.83;;;33.27;;
3050;SDS011;1535;51.098;6.414;2022-07-09T12:54:14;36.07;;;33.13;;
3050;SDS011;1535;51.098;6.414;2022-07-09T12:56:42;35.50;;;31.87;;
3050;SDS011;1535;51.098;6.414;2022-07-09T12:59:09;34.60;;;31.00;;
3050;SDS011;1535;51.098;6.414;2022-07-09T13:01:36;34.07;;;30.87;;
3050;SDS011;1535;51.098;6.414;2022-07-09T13:04:03;36.17;;;32.40;;
3050;SDS011;1535;51.098;6.414;2022-07-09T13:06:30;40.07;;;36.03;;
3050;SDS011;1535;51.098;6.414;2022-07-09T13:08:57;48.47;;;42.23;;
3050;SDS011;1535;51.098;6.414;2022-07-09T13:11:24;49.43;;;44.40;;
3050;SDS011;1535;51.098;6.414;2022-07-09T13:13:53;39.87;;;35.63;;
3050;SDS011;1535;51.098;6.414;2022-07-09T13:16:19;37.93;;;34.30;;
3050;SDS011;1535;51.098;6.414;2022-07-09T13:18:47;35.70;;;32.53;;
3050;SDS011;1535;51.098;6.414;2022-07-09T13:21:14;35.90;;;32.60;;
3050;SDS011;1535;51.098;6.414;2022-07-09T13:23:41;33.03;;;30.37;;
3050;SDS011;1535;51.098;6.414;2022-07-09T13:26:08;33.10;;;30.20;;
3050;SDS011;1535;51.098;6.414;2022-07-09T13:28:35;32.20;;;29.70;;
3050;SDS011;1535;51.098;6.414;2022-07-09T13:31:03;32.80;;;29.73;;
3050;SDS011;1535;51.098;6.414;2022-07-09T13:33:31;31.20;;;28.50;;
3050;SDS011;1535;51.098;6.414;2022-07-09T13:35:58;29.20;;;26.87;;
3050;SDS011;1535;51.098;6.414;2022-07-09T13:38:26;26.30;;;24.10;;
3050;SDS011;1535;51.098;6.414;2022-07-09T13:40:53;24.93;;;23.13;;
3050;SDS011;1535;51.098;6.414;2022-07-09T13:43:20;22.53;;;20.93;;
3050;SDS011;1535;51.098;6.414;2022-07-09T13:45:49;23.73;;;22.00;;
3050;SDS011;1535;51.098;6.414;2022-07-09T13:48:18;20.00;;;18.57;;
3050;SDS011;1535;51.098;6.414;2022-07-09T13:50:45;18.30;;;17.00;;
3050;SDS011;1535;51.098;6.414;2022-07-09T13:53:12;17.97;;;16.80;;
3050;SDS011;1535;51.098;6.414;2022-07-09T13:55:39;17.23;;;16.13;;
3050;SDS011;1535;51.098;6.414;2022-07-09T13:58:06;16.30;;;15.50;;
3050;SDS011;1535;51.098;6.414;2022-07-09T14:00:33;15.83;;;14.77;;
3050;SDS011;1535;51.098;6.414;2022-07-09T14:03:00;15.53;;;14.73;;
3050;SDS011;1535;51.098;6.414;2022-07-09T14:05:28;15.93;;;14.93;;
3050;SDS011;1535;51.098;6.414;2022-07-09T14:07:55;15.90;;;15.10;;
3050;SDS011;1535;51.098;6.414;2022-07-09T14:10:23;16.47;;;15.13;;
3050;SDS011;1535;51.098;6.414;2022-07-09T14:12:50;15.53;;;14.53;;
3050;SDS011;1535;51.098;6.414;2022-07-09T14:15:17;15.60;;;14.70;;
3050;SDS011;1535;51.098;6.414;2022-07-09T14:17:44;14.93;;;14.23;;
3050;SDS011;1535;51.098;6.414;2022-07-09T14:20:11;16.60;;;15.30;;
3050;SDS011;1535;51.098;6.414;2022-07-09T14:22:39;15.77;;;15.07;;
3050;SDS011;1535;51.098;6.414;2022-07-09T14:25:06;15.17;;;14.20;;
3050;SDS011;1535;51.098;6.414;2022-07-09T14:27:33;15.40;;;14.37;;
3050;SDS011;1535;51.098;6.414;2022-07-09T14:30:00;14.63;;;13.83;;
3050;SDS011;1535;51.098;6.414;2022-07-09T14:32:28;16.87;;;14.80;;
3050;SDS011;1535;51.098;6.414;2022-07-09T14:34:55;15.67;;;14.67;;
3050;SDS011;1535;51.098;6.414;2022-07-09T14:37:22;15.10;;;14.30;;
3050;SDS011;1535;51.098;6.414;2022-07-09T14:39:50;14.90;;;14.20;;
3050;SDS011;1535;51.098;6.414;2022-07-09T14:42:17;14.90;;;14.10;;
3050;SDS011;1535;51.098;6.414;2022-07-09T14:44:44;15.00;;;14.20;;
3050;SDS011;1535;51.098;6.414;2022-07-09T14:47:11;15.07;;;14.30;;
3050;SDS011;1535;51.098;6.414;2022-07-09T14:49:38;14.90;;;14.00;;
3050;SDS011;1535;51.098;6.414;2022-07-09T14:52:12;14.30;;;13.30;;